createdAt,value
2017-10-07T00:00:11.722Z,74.00
2017-10-07T00:02:40.396Z,74.20
2017-10-07T00:05:08.643Z,74.40
2017-10-07T00:07:36.105Z,74.40
2017-10-07T00:10:04.451Z,74.40
2017-10-07T00:12:31.916Z,74.40
2017-10-07T00:14:59.406Z,74.40
2017-10-07T00:17:26.931Z,74.30
2017-10-07T00:19:54.788Z,74.40
2017-10-07T00:22:22.248Z,74.50
2017-10-07T00:24:49.835Z,74.60
2017-10-07T00:27:17.777Z,74.50
2017-10-07T00:29:46.042Z,74.40
2017-10-07T00:32:14.254Z,74.60
2017-10-07T00:34:41.715Z,74.40
2017-10-07T00:37:09.703Z,74.50
2017-10-07T00:39:37.169Z,74.80
2017-10-07T00:42:05.484Z,74.90
2017-10-07T00:44:33.728Z,75.10
2017-10-07T00:47:01.971Z,75.10
2017-10-07T00:49:29.436Z,74.90
2017-10-07T00:51:56.955Z,75.10
2017-10-07T00:54:24.407Z,75.10
2017-10-07T00:56:54.477Z,75.10
2017-10-07T00:59:22.306Z,75.10
2017-10-07T01:01:50.741Z,75.10
2017-10-07T01:04:19.343Z,75.40
2017-10-07T01:06:47.554Z,75.20
2017-10-07T01:09:15.033Z,75.30
2017-10-07T01:11:42.512Z,74.80
2017-10-07T01:14:10.178Z,74.70
2017-10-07T01:16:38.076Z,74.80
2017-10-07T01:19:05.654Z,74.60
2017-10-07T01:21:33.367Z,74.70
2017-10-07T01:24:00.918Z,74.60
2017-10-07T01:26:29.300Z,74.60
2017-10-07T01:28:56.891Z,75.10
2017-10-07T01:31:25.307Z,75.50
2017-10-07T01:33:52.788Z,75.50
2017-10-07T01:36:20.862Z,75.30
2017-10-07T01:38:49.110Z,75.70
2017-10-07T01:41:17.809Z,76.10
2017-10-07T01:43:45.355Z,76.00
2017-10-07T01:46:12.851Z,75.90
2017-10-07T01:48:40.861Z,75.70
2017-10-07T01:51:08.906Z,75.90
2017-10-07T01:53:36.366Z,75.90
2017-10-07T01:56:04.148Z,76.00
2017-10-07T01:58:32.224Z,75.90
2017-10-07T02:01:01.008Z,75.90
2017-10-07T02:03:29.580Z,75.80
2017-10-07T02:05:57.467Z,75.50
2017-10-07T02:08:24.971Z,75.60
2017-10-07T02:10:52.447Z,75.50
2017-10-07T02:13:20.380Z,75.40
2017-10-07T02:15:47.847Z,75.30
2017-10-07T02:18:15.388Z,75.60
2017-10-07T02:20:42.875Z,75.80
2017-10-07T02:23:10.390Z,75.80
2017-10-07T02:25:37.971Z,75.90
2017-10-07T02:28:06.197Z,76.50
2017-10-07T02:30:34.221Z,76.50
2017-10-07T02:33:01.704Z,76.80
2017-10-07T02:35:30.274Z,76.80
2017-10-07T02:37:58.864Z,77.00
2017-10-07T02:40:26.863Z,77.00
2017-10-07T02:42:54.320Z,76.90
2017-10-07T02:45:21.993Z,76.90
2017-10-07T02:47:50.631Z,76.80
2017-10-07T02:50:18.160Z,76.80
2017-10-07T02:52:45.611Z,76.70
2017-10-07T02:55:13.593Z,76.60
2017-10-07T02:57:42.086Z,76.60
2017-10-07T03:00:10.010Z,76.60
2017-10-07T03:02:37.796Z,76.40
2017-10-07T03:05:05.255Z,75.80
2017-10-07T03:07:32.806Z,76.40
2017-10-07T03:10:00.849Z,76.00
2017-10-07T03:12:28.292Z,75.90
2017-10-07T03:14:55.774Z,75.90
2017-10-07T03:17:23.326Z,75.80
2017-10-07T03:19:52.091Z,75.70
2017-10-07T03:22:20.386Z,75.30
2017-10-07T03:24:47.831Z,75.30
2017-10-07T03:27:15.361Z,75.10
2017-10-07T03:29:44.691Z,75.00
2017-10-07T03:32:12.167Z,75.00
2017-10-07T03:34:40.396Z,75.00
2017-10-07T03:37:08.193Z,74.90
2017-10-07T03:39:36.034Z,74.90
2017-10-07T03:42:05.054Z,74.90
2017-10-07T03:44:32.856Z,74.90
2017-10-07T03:47:02.042Z,75.00
2017-10-07T03:49:30.651Z,75.00
2017-10-07T03:52:09.387Z,75.00
2017-10-07T03:54:38.045Z,74.80
2017-10-07T03:57:07.547Z,74.90
2017-10-07T03:59:35.044Z,74.80
2017-10-07T04:02:03.216Z,74.40
2017-10-07T04:04:30.730Z,74.60
2017-10-07T04:06:58.402Z,74.60
2017-10-07T04:09:25.990Z,74.70
2017-10-07T04:11:54.237Z,74.60
2017-10-07T04:14:22.954Z,74.50
2017-10-07T04:16:50.424Z,74.50
2017-10-07T04:19:17.928Z,74.30
2017-10-07T04:21:45.401Z,74.10
2017-10-07T04:24:12.853Z,73.80
2017-10-07T04:26:40.350Z,73.60
2017-10-07T04:29:08.236Z,73.70
2017-10-07T04:31:35.709Z,73.70
2017-10-07T04:34:03.276Z,73.60
2017-10-07T04:36:32.810Z,73.70
2017-10-07T04:39:00.808Z,73.60
2017-10-07T04:41:29.055Z,73.30
2017-10-07T04:43:57.089Z,73.30
2017-10-07T04:46:24.535Z,73.30
2017-10-07T04:48:52.509Z,73.00
2017-10-07T04:51:19.959Z,72.90
2017-10-07T04:53:47.595Z,72.90
2017-10-07T04:56:15.655Z,73.70
2017-10-07T04:58:44.281Z,72.70
2017-10-07T05:01:12.110Z,72.60
2017-10-07T05:03:39.880Z,72.80
2017-10-07T05:06:07.973Z,72.70
2017-10-07T05:08:35.448Z,72.50
2017-10-07T05:11:02.894Z,72.30
2017-10-07T05:13:30.645Z,72.40
2017-10-07T05:15:58.104Z,72.40
2017-10-07T05:18:25.848Z,72.20
2017-10-07T05:20:53.297Z,71.90
2017-10-07T05:23:20.860Z,72.10
2017-10-07T05:25:48.359Z,72.10
2017-10-07T05:28:17.103Z,72.20
2017-10-07T05:30:45.388Z,72.00
2017-10-07T05:33:12.848Z,71.90
2017-10-07T05:35:40.787Z,72.00
2017-10-07T05:38:08.897Z,72.00
2017-10-07T05:40:36.416Z,72.00
2017-10-07T05:43:04.448Z,71.90
2017-10-07T05:45:32.025Z,71.70
2017-10-07T05:47:59.861Z,71.70
2017-10-07T05:50:27.421Z,71.90
2017-10-07T05:52:54.873Z,71.70
2017-10-07T05:55:24.993Z,71.50
2017-10-07T05:57:53.650Z,71.70
2017-10-07T06:00:22.346Z,71.50
2017-10-07T06:02:50.704Z,71.50
2017-10-07T06:05:19.000Z,71.30
2017-10-07T06:07:46.655Z,71.30
2017-10-07T06:10:14.129Z,71.10
2017-10-07T06:12:42.384Z,71.60
2017-10-07T06:15:09.887Z,71.20
2017-10-07T06:17:37.921Z,71.20
2017-10-07T06:20:05.394Z,71.30
2017-10-07T06:22:32.856Z,71.90
2017-10-07T06:25:00.336Z,70.90
2017-10-07T06:27:27.809Z,70.80
2017-10-07T06:29:56.534Z,70.60
2017-10-07T06:32:24.017Z,70.30
2017-10-07T06:34:51.604Z,70.30
2017-10-07T06:37:19.927Z,69.30
2017-10-07T06:39:47.822Z,69.20
2017-10-07T06:42:16.054Z,69.20
2017-10-07T06:44:44.573Z,69.20
2017-10-07T06:47:13.230Z,69.00
2017-10-07T06:49:41.462Z,69.10
2017-10-07T06:52:08.909Z,69.10
2017-10-07T06:54:37.579Z,67.60
2017-10-07T06:57:05.349Z,67.50
2017-10-07T06:59:33.342Z,67.60
2017-10-07T07:02:01.272Z,67.60
2017-10-07T07:04:28.830Z,66.80
2017-10-07T07:06:56.723Z,66.40
2017-10-07T07:09:24.184Z,66.40
2017-10-07T07:11:52.431Z,65.90
2017-10-07T07:14:20.752Z,65.80
2017-10-07T07:16:48.253Z,65.80
2017-10-07T07:19:16.548Z,64.70
2017-10-07T07:21:44.058Z,64.70
2017-10-07T07:24:11.664Z,66.30
2017-10-07T07:26:40.008Z,65.60
2017-10-07T07:29:08.288Z,65.50
2017-10-07T07:31:35.759Z,65.40
2017-10-07T07:34:04.032Z,65.10
2017-10-07T07:36:32.583Z,65.00
2017-10-07T07:39:01.260Z,65.00
2017-10-07T07:41:29.112Z,65.00
2017-10-07T07:43:57.614Z,65.20
2017-10-07T07:46:25.377Z,65.20
2017-10-07T07:48:53.241Z,65.00
2017-10-07T07:51:20.732Z,64.60
2017-10-07T07:53:48.203Z,64.60
2017-10-07T07:56:16.924Z,65.00
2017-10-07T07:58:46.661Z,64.70
2017-10-07T08:01:14.622Z,64.70
2017-10-07T08:03:42.421Z,65.00
2017-10-07T08:06:11.209Z,65.10
2017-10-07T08:08:38.681Z,65.10
2017-10-07T08:11:06.229Z,65.20
2017-10-07T08:13:33.754Z,65.40
2017-10-07T08:16:01.237Z,65.20
2017-10-07T08:18:29.392Z,64.90
2017-10-07T08:20:56.863Z,64.80
2017-10-07T08:23:24.341Z,64.70
2017-10-07T08:25:51.886Z,65.20
2017-10-07T08:28:19.429Z,64.90
2017-10-07T08:30:46.919Z,64.60
2017-10-07T08:33:15.293Z,65.10
2017-10-07T08:35:43.578Z,65.30
2017-10-07T08:38:12.622Z,65.30
2017-10-07T08:40:41.077Z,64.80
2017-10-07T08:43:09.321Z,64.70
2017-10-07T08:45:37.347Z,64.70
2017-10-07T08:48:05.475Z,65.00
2017-10-07T08:50:33.089Z,65.10
2017-10-07T08:53:01.328Z,66.10
2017-10-07T08:55:29.618Z,66.10
2017-10-07T08:57:58.386Z,65.40
2017-10-07T09:00:27.217Z,65.30
2017-10-07T09:02:55.915Z,65.30
2017-10-07T09:05:23.999Z,65.40
2017-10-07T09:07:52.219Z,66.00
2017-10-07T09:10:19.712Z,66.00
2017-10-07T09:12:47.802Z,66.20
2017-10-07T09:15:15.498Z,66.20
2017-10-07T09:17:42.988Z,66.00
2017-10-07T09:20:10.440Z,66.90
2017-10-07T09:22:37.953Z,67.60
2017-10-07T09:25:05.432Z,68.00
2017-10-07T09:27:32.883Z,68.50
2017-10-07T09:30:00.966Z,68.70
2017-10-07T09:32:28.436Z,69.10
2017-10-07T09:34:55.932Z,68.90
2017-10-07T09:37:23.365Z,69.50
2017-10-07T09:39:51.089Z,69.80
2017-10-07T09:42:18.541Z,69.00
2017-10-07T09:44:46.013Z,69.60
2017-10-07T09:47:14.755Z,69.70
2017-10-07T09:49:42.512Z,69.70
2017-10-07T09:52:10.024Z,70.00
2017-10-07T09:54:37.912Z,69.70
2017-10-07T09:57:06.445Z,69.80
2017-10-07T09:59:33.936Z,70.20
2017-10-07T10:02:02.905Z,69.70
2017-10-07T10:04:31.158Z,69.70
2017-10-07T10:06:59.377Z,70.00
2017-10-07T10:09:26.942Z,69.90
2017-10-07T10:11:54.403Z,69.80
2017-10-07T10:14:22.978Z,70.00
2017-10-07T10:16:52.267Z,69.80
2017-10-07T10:19:20.500Z,69.90
2017-10-07T10:21:47.974Z,69.90
2017-10-07T10:24:15.504Z,69.80
2017-10-07T10:26:43.719Z,69.90
2017-10-07T10:29:11.256Z,69.80
2017-10-07T10:31:38.786Z,68.80
2017-10-07T10:34:07.071Z,69.40
2017-10-07T10:36:34.637Z,69.10
2017-10-07T10:39:03.253Z,68.70
2017-10-07T10:41:30.763Z,69.30
2017-10-07T10:43:59.375Z,69.10
2017-10-07T10:46:26.863Z,69.10
2017-10-07T10:48:54.933Z,69.40
2017-10-07T10:51:23.157Z,70.80
2017-10-07T10:53:50.628Z,70.70
2017-10-07T10:56:19.472Z,72.40
2017-10-07T10:58:47.401Z,72.30
2017-10-07T11:01:15.353Z,73.00
2017-10-07T11:03:43.264Z,72.70
2017-10-07T11:06:11.507Z,73.70
2017-10-07T11:08:40.488Z,73.70
2017-10-07T11:11:10.086Z,74.60
2017-10-07T11:13:38.394Z,74.90
2017-10-07T11:16:05.853Z,74.90
2017-10-07T11:18:33.483Z,75.80
2017-10-07T11:21:00.954Z,76.00
2017-10-07T11:23:28.463Z,76.40
2017-10-07T11:25:56.039Z,76.30
2017-10-07T11:28:24.192Z,76.80
2017-10-07T11:30:52.085Z,76.90
2017-10-07T11:33:19.539Z,76.80
2017-10-07T11:35:48.797Z,77.00
2017-10-07T11:38:16.261Z,77.40
2017-10-07T11:40:44.349Z,77.80
2017-10-07T11:43:11.855Z,77.40
2017-10-07T11:45:39.326Z,77.90
2017-10-07T11:48:07.525Z,78.00
2017-10-07T11:50:35.746Z,79.00
2017-10-07T11:53:03.425Z,78.30
2017-10-07T11:55:31.396Z,78.80
2017-10-07T11:57:59.540Z,79.00
2017-10-07T12:00:27.377Z,79.60
2017-10-07T12:02:55.160Z,79.70
2017-10-07T12:05:22.612Z,79.80
2017-10-07T12:07:50.500Z,80.20
2017-10-07T12:10:17.943Z,80.00
2017-10-07T12:12:45.420Z,79.90
2017-10-07T12:15:13.222Z,80.00
2017-10-07T12:17:40.712Z,80.20
2017-10-07T12:20:08.184Z,80.10
2017-10-07T12:22:35.650Z,80.50
2017-10-07T12:25:03.125Z,80.50
2017-10-07T12:27:30.577Z,80.30
2017-10-07T12:29:58.218Z,80.30
2017-10-07T12:32:25.692Z,80.40
2017-10-07T12:34:53.793Z,80.70
2017-10-07T12:37:21.257Z,80.60
2017-10-07T12:39:49.460Z,80.90
2017-10-07T12:42:17.999Z,81.20
2017-10-07T12:44:46.216Z,81.50
2017-10-07T12:47:14.124Z,81.40
2017-10-07T12:49:42.448Z,81.30
2017-10-07T12:52:10.267Z,81.20
2017-10-07T12:54:38.421Z,81.40
2017-10-07T12:57:06.508Z,81.20
2017-10-07T12:59:34.398Z,81.20
2017-10-07T13:02:02.816Z,81.20
2017-10-07T13:04:30.253Z,81.70
2017-10-07T13:06:57.775Z,81.50
2017-10-07T13:09:25.318Z,81.30
2017-10-07T13:11:53.423Z,81.70
2017-10-07T13:14:20.921Z,81.50
2017-10-07T13:16:48.936Z,82.00
2017-10-07T13:19:17.166Z,81.90
2017-10-07T13:21:44.831Z,81.90
2017-10-07T13:24:13.428Z,81.90
2017-10-07T13:26:40.923Z,81.80
2017-10-07T13:29:08.819Z,82.00
2017-10-07T13:31:36.306Z,81.70
2017-10-07T13:34:03.761Z,81.60
2017-10-07T13:36:31.228Z,81.70
2017-10-07T13:38:59.360Z,81.70
2017-10-07T13:41:27.953Z,82.20
2017-10-07T13:43:55.900Z,82.30
2017-10-07T13:46:24.197Z,82.40
2017-10-07T13:48:52.090Z,82.30
2017-10-07T13:51:19.591Z,82.50
2017-10-07T13:53:47.042Z,82.60
2017-10-07T13:56:15.086Z,82.30
2017-10-07T13:58:42.885Z,82.50
2017-10-07T14:01:11.608Z,82.20
2017-10-07T14:03:39.494Z,82.20
2017-10-07T14:06:06.978Z,82.60
2017-10-07T14:08:34.444Z,82.60
2017-10-07T14:11:02.639Z,82.50
2017-10-07T14:13:30.958Z,83.30
2017-10-07T14:15:59.013Z,83.00
2017-10-07T14:18:29.538Z,83.00
2017-10-07T14:20:57.709Z,82.90
2017-10-07T14:23:25.495Z,83.10
2017-10-07T14:25:52.985Z,83.10
2017-10-07T14:28:20.442Z,83.00
2017-10-07T14:30:48.352Z,83.00
2017-10-07T14:33:16.589Z,83.10
2017-10-07T14:35:44.841Z,82.80
2017-10-07T14:38:13.056Z,82.80
2017-10-07T14:40:40.924Z,82.80
2017-10-07T14:43:08.400Z,83.00
2017-10-07T14:45:36.646Z,82.90
2017-10-07T14:48:05.515Z,82.80
2017-10-07T14:50:34.037Z,82.70
2017-10-07T14:53:02.000Z,82.70
2017-10-07T14:55:30.453Z,82.90
2017-10-07T14:57:59.671Z,83.10
2017-10-07T15:00:27.318Z,83.30
2017-10-07T15:02:56.010Z,83.20
2017-10-07T15:05:24.308Z,83.50
2017-10-07T15:07:51.761Z,83.40
2017-10-07T15:10:19.293Z,83.40
2017-10-07T15:12:46.844Z,83.10
2017-10-07T15:15:14.537Z,84.00
2017-10-07T15:17:43.603Z,83.70
2017-10-07T15:20:11.856Z,83.60
2017-10-07T15:22:40.120Z,83.40
2017-10-07T15:25:07.625Z,83.70
2017-10-07T15:27:35.080Z,83.60
2017-10-07T15:30:02.855Z,83.40
2017-10-07T15:32:30.352Z,83.70
2017-10-07T15:34:57.827Z,83.70
2017-10-07T15:37:25.478Z,83.70
2017-10-07T15:39:53.098Z,83.50
2017-10-07T15:42:20.988Z,83.60
2017-10-07T15:44:49.201Z,83.60
2017-10-07T15:47:17.917Z,83.50
2017-10-07T15:49:46.132Z,83.80
2017-10-07T15:52:13.814Z,83.80
2017-10-07T15:54:41.316Z,83.70
2017-10-07T15:57:09.712Z,83.80
2017-10-07T15:59:37.469Z,84.10
2017-10-07T16:02:06.450Z,84.20
2017-10-07T16:04:34.758Z,84.20
2017-10-07T16:07:02.274Z,84.80
2017-10-07T16:09:30.256Z,84.30
2017-10-07T16:11:57.745Z,84.20
2017-10-07T16:14:26.567Z,84.10
2017-10-07T16:16:54.162Z,84.00
2017-10-07T16:19:22.923Z,84.20
2017-10-07T16:21:50.429Z,84.20
2017-10-07T16:24:18.895Z,84.10
2017-10-07T16:26:46.352Z,84.00
2017-10-07T16:29:13.867Z,84.20
2017-10-07T16:31:41.625Z,84.10
2017-10-07T16:34:09.148Z,84.30
2017-10-07T16:36:36.602Z,84.40
2017-10-07T16:39:04.728Z,84.50
2017-10-07T16:41:32.517Z,84.40
2017-10-07T16:44:00.788Z,84.30
2017-10-07T16:46:28.239Z,84.30
2017-10-07T16:48:56.014Z,84.20
2017-10-07T16:51:24.235Z,84.00
2017-10-07T16:53:51.729Z,84.00
2017-10-07T16:56:19.933Z,84.00
2017-10-07T16:58:49.452Z,84.00
2017-10-07T17:01:16.952Z,84.10
2017-10-07T17:03:44.904Z,84.00
2017-10-07T17:06:12.447Z,84.00
2017-10-07T17:08:39.989Z,84.00
2017-10-07T17:11:07.434Z,83.80
2017-10-07T17:13:35.399Z,83.80
2017-10-07T17:16:02.842Z,83.70
2017-10-07T17:18:30.330Z,83.60
2017-10-07T17:20:57.783Z,83.80
2017-10-07T17:23:25.476Z,83.80
2017-10-07T17:25:52.926Z,84.00
2017-10-07T17:28:20.438Z,84.00
2017-10-07T17:30:47.928Z,84.00
2017-10-07T17:33:15.769Z,84.30
2017-10-07T17:35:43.992Z,83.90
2017-10-07T17:38:11.533Z,83.90
2017-10-07T17:40:39.589Z,84.20
2017-10-07T17:43:07.479Z,84.30
2017-10-07T17:45:34.947Z,84.30
2017-10-07T17:48:02.883Z,84.50
2017-10-07T17:50:31.126Z,84.20
2017-10-07T17:52:59.400Z,84.70
2017-10-07T17:55:28.269Z,84.50
2017-10-07T17:57:56.943Z,84.40
2017-10-07T18:00:26.016Z,84.40
2017-10-07T18:02:54.205Z,84.40
2017-10-07T18:05:23.004Z,84.30
2017-10-07T18:07:50.463Z,84.30
2017-10-07T18:10:17.944Z,84.10
2017-10-07T18:12:46.263Z,84.30
2017-10-07T18:15:13.815Z,84.20
2017-10-07T18:17:41.331Z,84.40
2017-10-07T18:20:08.832Z,84.50
2017-10-07T18:22:38.323Z,84.40
2017-10-07T18:25:06.384Z,84.40
2017-10-07T18:27:33.962Z,84.60
2017-10-07T18:30:01.429Z,84.60
2017-10-07T18:32:29.045Z,84.60
2017-10-07T18:34:56.493Z,85.00
2017-10-07T18:37:24.029Z,84.30
2017-10-07T18:39:51.551Z,84.40
2017-10-07T18:42:20.139Z,84.30
2017-10-07T18:44:47.606Z,84.60
2017-10-07T18:47:16.257Z,84.50
2017-10-07T18:49:43.748Z,84.40
2017-10-07T18:52:11.973Z,84.50
2017-10-07T18:54:39.504Z,84.50
2017-10-07T18:57:07.903Z,84.40
2017-10-07T18:59:37.603Z,84.30
2017-10-07T19:02:06.722Z,84.20
2017-10-07T19:04:34.478Z,84.20
2017-10-07T19:07:02.020Z,84.00
2017-10-07T19:09:29.557Z,83.90
2017-10-07T19:11:57.029Z,84.10
2017-10-07T19:14:24.656Z,84.20
2017-10-07T19:16:52.909Z,84.20
2017-10-07T19:19:20.429Z,84.40
2017-10-07T19:21:48.300Z,84.30
2017-10-07T19:24:16.154Z,84.30
2017-10-07T19:26:43.604Z,84.20
2017-10-07T19:29:11.083Z,84.20
2017-10-07T19:31:39.722Z,84.30
2017-10-07T19:34:07.178Z,84.30
2017-10-07T19:36:34.813Z,84.50
2017-10-07T19:39:02.288Z,84.40
2017-10-07T19:41:30.797Z,84.60
2017-10-07T19:43:58.788Z,84.50
2017-10-07T19:46:26.276Z,84.70
2017-10-07T19:48:54.362Z,84.70
2017-10-07T19:51:21.833Z,84.70
2017-10-07T19:53:50.662Z,84.80
2017-10-07T19:56:18.719Z,84.80
2017-10-07T19:58:47.593Z,84.90
2017-10-07T20:01:15.925Z,84.80
2017-10-07T20:03:43.702Z,84.90
2017-10-07T20:06:11.321Z,84.90
2017-10-07T20:08:38.822Z,84.80
2017-10-07T20:11:06.703Z,84.80
2017-10-07T20:13:34.913Z,85.00
2017-10-07T20:16:03.324Z,85.00
2017-10-07T20:18:31.638Z,84.80
2017-10-07T20:20:59.306Z,84.80
2017-10-07T20:23:27.206Z,84.70
2017-10-07T20:25:54.704Z,84.70
2017-10-07T20:28:22.191Z,84.90
2017-10-07T20:30:49.668Z,84.80
2017-10-07T20:33:17.141Z,84.50
2017-10-07T20:35:45.380Z,84.50
2017-10-07T20:38:12.838Z,84.50
2017-10-07T20:40:41.180Z,84.30
2017-10-07T20:43:09.462Z,84.30
2017-10-07T20:45:37.892Z,84.50
2017-10-07T20:48:05.658Z,84.40
2017-10-07T20:50:33.983Z,85.00
2017-10-07T20:53:01.430Z,84.20
2017-10-07T20:55:29.222Z,84.50
2017-10-07T20:57:58.221Z,84.50
2017-10-07T21:00:26.038Z,84.50
2017-10-07T21:02:55.121Z,85.20
2017-10-07T21:05:23.436Z,84.70
2017-10-07T21:07:50.987Z,84.60
2017-10-07T21:10:18.511Z,84.70
2017-10-07T21:12:45.953Z,84.90
2017-10-07T21:15:13.767Z,85.00
2017-10-07T21:17:41.610Z,84.90
2017-10-07T21:20:09.937Z,85.20
2017-10-07T21:22:37.930Z,85.20
2017-10-07T21:25:06.192Z,85.30
2017-10-07T21:27:34.442Z,85.20
2017-10-07T21:30:02.697Z,85.30
2017-10-07T21:32:30.195Z,85.20
2017-10-07T21:34:57.735Z,85.20
2017-10-07T21:37:27.197Z,84.70
2017-10-07T21:39:54.665Z,84.60
2017-10-07T21:42:22.111Z,84.80
2017-10-07T21:44:50.219Z,84.70
2017-10-07T21:47:19.897Z,84.30
2017-10-07T21:49:47.498Z,84.30
2017-10-07T21:52:14.954Z,84.40
2017-10-07T21:54:42.411Z,84.40
2017-10-07T21:57:11.089Z,84.30
2017-10-07T21:59:38.696Z,84.10
2017-10-07T22:02:06.486Z,84.30
2017-10-07T22:04:35.161Z,84.20
2017-10-07T22:07:03.415Z,84.40
2017-10-07T22:09:30.863Z,84.40
2017-10-07T22:11:59.176Z,84.30
2017-10-07T22:14:27.442Z,84.30
2017-10-07T22:16:54.915Z,84.40
2017-10-07T22:19:22.383Z,84.30
2017-10-07T22:21:50.613Z,84.50
2017-10-07T22:24:18.340Z,84.50
2017-10-07T22:26:45.871Z,84.60
2017-10-07T22:29:13.315Z,84.50
2017-10-07T22:31:41.134Z,84.80
2017-10-07T22:34:08.621Z,85.00
2017-10-07T22:36:36.097Z,85.00
2017-10-07T22:39:04.328Z,85.40
2017-10-07T22:41:32.818Z,85.30
2017-10-07T22:44:01.740Z,85.40
2017-10-07T22:46:29.229Z,85.40
2017-10-07T22:48:57.803Z,85.50
2017-10-07T22:51:26.079Z,85.50
2017-10-07T22:53:53.540Z,85.50
2017-10-07T22:56:21.187Z,85.50
2017-10-07T22:58:49.190Z,85.40
2017-10-07T23:01:17.017Z,85.60
2017-10-07T23:03:44.851Z,85.40
2017-10-07T23:06:12.328Z,85.40
2017-10-07T23:08:40.610Z,85.90
2017-10-07T23:11:08.827Z,85.30
2017-10-07T23:13:36.313Z,85.20
2017-10-07T23:16:04.538Z,85.20
2017-10-07T23:18:32.008Z,85.10
2017-10-07T23:21:00.477Z,85.00
2017-10-07T23:23:28.257Z,85.00
2017-10-07T23:25:55.712Z,84.90
2017-10-07T23:28:23.454Z,84.80
2017-10-07T23:30:51.119Z,85.50
2017-10-07T23:33:18.652Z,84.90
2017-10-07T23:35:46.122Z,84.80
2017-10-07T23:38:13.603Z,84.80
2017-10-07T23:40:41.048Z,85.30
2017-10-07T23:43:08.857Z,84.80
2017-10-07T23:45:36.902Z,84.80
2017-10-07T23:48:04.685Z,84.80
2017-10-07T23:50:32.140Z,84.80
2017-10-07T23:52:59.706Z,84.90
2017-10-07T23:55:27.587Z,85.00
2017-10-07T23:57:56.778Z,84.40
